Time;durP1;ratioP1;P1;durP2;ratioP2;P2;SDS_P1;SDS_P2;PMS_P1;PMS_P2;Temp;Humidity;BMP_temperature;BMP_pressure;BME280_temperature;BME280_humidity;BME280_pressure;Samples;Min_cycle;Max_cycle;Signal;HPM_P1;HPM_P2
2023/05/26 00:00:30;;;;;;;0.10;0.10;;;;;;;14.24;nan;101301.72;5039108;28;20072;-81
2023/05/26 00:02:55;;;;;;;0.10;0.10;;;;;;;14.20;nan;101303.84;5038020;28;20459;-81
2023/05/26 00:05:20;;;;;;;0.10;0.10;;;;;;;14.16;nan;101296.34;5035490;28;20025;-81
2023/05/26 00:07:47;;;;;;;0.10;0.10;;;;;;;14.08;nan;101293.63;5057083;28;20053;-82
2023/05/26 00:10:12;;;;;;;0.10;0.10;;;;;;;14.02;nan;101298.56;5040796;28;20030;-82
2023/05/26 00:12:38;;;;;;;0.10;0.10;;;;;;;13.96;nan;101301.00;5041863;28;20029;-81
2023/05/26 00:15:04;;;;;;;0.10;0.10;;;;;;;13.89;nan;101303.44;5036078;28;20060;-82
2023/05/26 00:17:29;;;;;;;0.10;0.10;;;;;;;13.81;nan;101300.75;5023352;28;20044;-82
2023/05/26 00:19:59;;;;;;;0.10;0.10;;;;;;;13.74;nan;101300.50;5034618;28;20033;-82
2023/05/26 00:22:25;;;;;;;0.10;0.10;;;;;;;13.68;nan;101305.59;5042126;28;20040;-81
2023/05/26 00:24:52;;;;;;;0.10;0.10;;;;;;;13.62;nan;101299.09;5039565;28;20125;-81
2023/05/26 00:27:17;;;;;;;0.10;0.10;;;;;;;13.60;nan;101301.06;5023816;28;20034;-81
2023/05/26 00:29:42;;;;;;;0.10;0.10;;;;;;;13.55;nan;101298.84;5037815;28;20687;-81
2023/05/26 00:32:08;;;;;;;0.10;0.10;;;;;;;13.48;nan;101302.28;5019724;28;20048;-80
2023/05/26 00:34:36;;;;;;;0.10;0.10;;;;;;;13.38;nan;101305.00;5014382;28;20041;-80
2023/05/26 00:37:02;;;;;;;0.10;0.10;;;;;;;13.32;nan;101311.75;5043691;28;20331;-81
2023/05/26 00:39:28;;;;;;;0.10;0.10;;;;;;;13.25;nan;101312.47;5016500;28;20029;-81
2023/05/26 00:41:54;;;;;;;0.10;0.10;;;;;;;13.16;nan;101303.59;5043771;28;20056;-81
2023/05/26 00:44:21;;;;;;;0.10;0.10;;;;;;;13.10;nan;101306.84;5046318;28;20021;-81
2023/05/26 00:46:46;;;;;;;0.10;0.10;;;;;;;13.00;nan;101300.75;5028048;28;20057;-82
2023/05/26 00:49:11;;;;;;;0.15;0.15;;;;;;;12.86;nan;101302.91;5037160;28;20059;-81
2023/05/26 00:51:37;;;;;;;0.10;0.10;;;;;;;12.80;nan;101300.00;5025238;28;20038;-81
2023/05/26 00:54:02;;;;;;;0.10;0.10;;;;;;;12.68;nan;101308.19;5043697;28;20092;-81
2023/05/26 00:56:28;;;;;;;0.20;0.20;;;;;;;12.61;nan;101301.78;5026326;28;20432;-81
2023/05/26 00:58:55;;;;;;;0.20;0.20;;;;;;;12.48;nan;101302.09;5025039;28;20087;-81
2023/05/26 01:01:20;;;;;;;0.20;0.20;;;;;;;12.40;nan;101302.00;5041735;28;20563;-81
2023/05/26 01:03:47;;;;;;;0.10;0.10;;;;;;;12.30;nan;101295.88;5042166;28;20037;-81
2023/05/26 01:06:12;;;;;;;0.20;0.20;;;;;;;12.24;nan;101293.81;5016894;28;20155;-80
2023/05/26 01:08:38;;;;;;;0.10;0.10;;;;;;;12.16;nan;101293.69;5043748;28;20061;-81
2023/05/26 01:11:12;;;;;;;0.20;0.20;;;;;;;12.11;nan;101294.13;5039378;28;20028;-82
2023/05/26 01:13:50;;;;;;;0.10;0.10;;;;;;;12.05;nan;101300.81;5043527;28;20026;-81
2023/05/26 01:16:18;;;;;;;0.20;0.20;;;;;;;12.05;nan;101297.34;5025345;28;20140;-81
2023/05/26 01:19:00;;;;;;;0.17;0.17;;;;;;;12.04;nan;101299.16;5042594;28;20039;-82
2023/05/26 01:21:27;;;;;;;0.20;0.20;;;;;;;12.06;nan;101291.03;5042070;28;20029;-82
2023/05/26 01:24:11;;;;;;;0.20;0.20;;;;;;;12.05;nan;101290.22;5044403;28;20067;-82
2023/05/26 01:27:03;;;;;;;0.20;0.20;;;;;;;11.98;nan;101293.56;5043222;28;20701;-82
2023/05/26 01:29:30;;;;;;;0.20;0.20;;;;;;;11.92;nan;101307.38;5022023;28;20026;-81
2023/05/26 01:32:24;;;;;;;0.20;0.20;;;;;;;11.85;nan;101304.44;5045489;28;20121;-82
2023/05/26 01:34:49;;;;;;;0.20;0.20;;;;;;;11.74;nan;101302.78;5024238;28;20038;-81
2023/05/26 01:37:15;;;;;;;0.20;0.20;;;;;;;11.74;nan;101294.00;5016787;28;20033;-81
2023/05/26 01:39:40;;;;;;;0.20;0.20;;;;;;;11.72;nan;101293.28;5019015;28;20102;-81
2023/05/26 01:42:18;;;;;;;0.20;0.20;;;;;;;11.71;nan;101302.22;5022935;28;20113;-82
2023/05/26 01:44:53;;;;;;;0.20;0.20;;;;;;;11.67;nan;101304.31;5024505;28;20446;-82
2023/05/26 01:47:18;;;;;;;0.20;0.20;;;;;;;11.61;nan;101305.72;5026743;28;20087;-82
2023/05/26 01:49:46;;;;;;;0.20;0.20;;;;;;;11.57;nan;101303.47;5030504;28;20049;-82
2023/05/26 01:52:15;;;;;;;0.13;0.13;;;;;;;11.54;nan;101301.13;5019828;28;20112;-82
2023/05/26 01:54:49;;;;;;;0.20;0.20;;;;;;;11.48;nan;101297.19;5016633;28;20049;-82
2023/05/26 01:57:15;;;;;;;0.20;0.20;;;;;;;11.43;nan;101302.91;5026591;28;20096;-82
2023/05/26 01:59:41;;;;;;;0.20;0.20;;;;;;;11.36;nan;101300.94;5016786;28;20046;-82
2023/05/26 02:02:06;;;;;;;0.20;0.20;;;;;;;11.39;nan;101309.47;5021679;28;20022;-82
2023/05/26 02:04:32;;;;;;;0.20;0.20;;;;;;;11.36;nan;101314.19;4998514;28;20045;-82
2023/05/26 02:06:58;;;;;;;0.20;0.20;;;;;;;11.37;nan;101315.84;5027651;28;20036;-81
2023/05/26 02:09:23;;;;;;;0.20;0.20;;;;;;;11.34;nan;101303.72;5039828;28;20036;-82
2023/05/26 02:11:48;;;;;;;0.20;0.20;;;;;;;11.29;nan;101307.78;5025519;28;20030;-82
2023/05/26 02:14:14;;;;;;;0.20;0.20;;;;;;;11.26;nan;101309.72;5039959;28;20030;-82
2023/05/26 02:16:39;;;;;;;0.20;0.20;;;;;;;11.20;nan;101315.56;5034257;28;20037;-82
2023/05/26 02:19:07;;;;;;;0.20;0.20;;;;;;;11.16;nan;101308.88;5022369;28;20028;-82
2023/05/26 02:21:32;;;;;;;0.20;0.20;;;;;;;11.15;nan;101309.00;5021407;28;20116;-82
2023/05/26 02:23:58;;;;;;;0.20;0.20;;;;;;;11.11;nan;101310.22;5041535;28;20605;-82
2023/05/26 02:26:23;;;;;;;0.20;0.20;;;;;;;11.06;nan;101308.03;5030115;28;20033;-82
2023/05/26 02:28:50;;;;;;;0.20;0.20;;;;;;;11.04;nan;101309.97;5036127;28;20128;-82
2023/05/26 02:31:16;;;;;;;0.20;0.20;;;;;;;11.03;nan;101310.91;5019298;28;20039;-82
2023/05/26 02:33:42;;;;;;;0.20;0.20;;;;;;;10.99;nan;101305.06;5038695;28;20033;-82
2023/05/26 02:36:07;;;;;;;0.20;0.20;;;;;;;10.97;nan;101303.53;5018040;28;20040;-83
2023/05/26 02:38:32;;;;;;;0.20;0.20;;;;;;;10.93;nan;101305.59;5018662;28;20096;-82
2023/05/26 02:40:58;;;;;;;0.20;0.20;;;;;;;10.83;nan;101297.63;5029685;28;20033;-83
2023/05/26 02:43:23;;;;;;;0.20;0.20;;;;;;;10.80;nan;101305.03;5033403;28;20037;-82
2023/05/26 02:45:49;;;;;;;0.20;0.20;;;;;;;10.73;nan;101307.34;5013338;28;20815;-82
2023/05/26 02:48:14;;;;;;;0.20;0.20;;;;;;;10.69;nan;101302.47;5011408;28;20029;-82
2023/05/26 02:50:40;;;;;;;0.20;0.20;;;;;;;10.66;nan;101303.56;5035512;28;20045;-82
2023/05/26 02:53:05;;;;;;;0.20;0.20;;;;;;;10.61;nan;101293.38;5022282;28;20045;-82
2023/05/26 02:55:30;;;;;;;0.20;0.20;;;;;;;10.55;nan;101299.19;5012357;28;20065;-82
2023/05/26 02:57:56;;;;;;;0.30;0.30;;;;;;;10.50;nan;101295.28;5029683;28;20034;-82
2023/05/26 03:00:21;;;;;;;0.28;0.28;;;;;;;10.43;nan;101300.25;5034474;28;20033;-82
2023/05/26 03:02:46;;;;;;;0.20;0.20;;;;;;;10.40;nan;101298.72;5044115;28;20457;-83
2023/05/26 03:05:12;;;;;;;0.30;0.30;;;;;;;10.38;nan;101298.00;5052121;28;20041;-82
2023/05/26 03:07:38;;;;;;;0.20;0.20;;;;;;;10.37;nan;101308.72;5029227;28;20037;-82
2023/05/26 03:10:04;;;;;;;0.30;0.30;;;;;;;10.34;nan;101304.50;5014732;28;20037;-83
2023/05/26 03:12:29;;;;;;;0.20;0.20;;;;;;;10.34;nan;101295.75;5013622;28;20048;-82
2023/05/26 03:14:55;;;;;;;0.30;0.30;;;;;;;10.32;nan;101301.19;5019650;28;20049;-82
2023/05/26 03:17:20;;;;;;;0.20;0.20;;;;;;;10.30;nan;101303.13;5040969;28;20147;-82
2023/05/26 03:19:45;;;;;;;0.20;0.20;;;;;;;10.30;nan;101294.38;5040035;28;20037;-82
2023/05/26 03:22:11;;;;;;;0.20;0.20;;;;;;;10.30;nan;101303.13;5027993;28;20029;-83
2023/05/26 03:24:37;;;;;;;0.20;0.20;;;;;;;10.28;nan;101299.78;5018789;28;20041;-83
2023/05/26 03:27:02;;;;;;;0.20;0.20;;;;;;;10.30;nan;101299.66;5035164;28;20040;-82
2023/05/26 03:29:29;;;;;;;0.20;0.20;;;;;;;10.28;nan;101297.13;5037122;28;20056;-82
2023/05/26 03:31:55;;;;;;;0.20;0.20;;;;;;;10.27;nan;101300.69;5043090;28;20041;-83
2023/05/26 03:34:21;;;;;;;0.20;0.20;;;;;;;10.25;nan;101292.09;5037929;28;20290;-82
2023/05/26 03:36:48;;;;;;;0.20;0.20;;;;;;;10.21;nan;101293.31;5033148;28;20071;-82
2023/05/26 03:39:14;;;;;;;0.30;0.30;;;;;;;10.21;nan;101301.22;5014215;28;20112;-82
2023/05/26 03:41:39;;;;;;;0.20;0.20;;;;;;;10.21;nan;101302.06;5016206;28;20125;-82
2023/05/26 03:44:06;;;;;;;0.30;0.30;;;;;;;10.20;nan;101304.81;5015088;28;20030;-82
2023/05/26 03:46:31;;;;;;;0.20;0.20;;;;;;;10.16;nan;101311.34;5033562;28;20064;-82
2023/05/26 03:48:57;;;;;;;0.20;0.20;;;;;;;10.19;nan;101303.16;5036364;28;20037;-82
2023/05/26 03:51:22;;;;;;;0.20;0.20;;;;;;;10.17;nan;101313.03;5023650;28;20029;-82
2023/05/26 03:53:47;;;;;;;0.30;0.30;;;;;;;10.15;nan;101315.81;5017449;28;20033;-81
2023/05/26 03:56:13;;;;;;;0.30;0.30;;;;;;;10.10;nan;101315.34;5036736;28;20442;-82
2023/05/26 03:58:38;;;;;;;0.20;0.20;;;;;;;10.09;nan;101318.13;5027584;28;20120;-81
2023/05/26 04:01:04;;;;;;;0.20;0.20;;;;;;;10.12;nan;101317.88;5022105;28;20280;-81
2023/05/26 04:03:29;;;;;;;0.20;0.20;;;;;;;10.14;nan;101315.94;5031776;28;20040;-81
2023/05/26 04:05:57;;;;;;;0.20;0.20;;;;;;;10.18;nan;101318.19;5038266;28;20567;-81
2023/05/26 04:08:22;;;;;;;0.30;0.30;;;;;;;10.23;nan;101315.16;5022566;28;20061;-82
2023/05/26 04:10:47;;;;;;;0.30;0.30;;;;;;;10.26;nan;101314.88;5018090;28;20124;-82
2023/05/26 04:13:13;;;;;;;0.20;0.20;;;;;;;10.29;nan;101319.94;5034401;28;20075;-81
2023/05/26 04:15:39;;;;;;;0.20;0.20;;;;;;;10.32;nan;101330.28;5041667;28;20080;-81
2023/05/26 04:18:05;;;;;;;0.20;0.20;;;;;;;10.32;nan;101324.13;5041588;28;20402;-81
2023/05/26 04:20:30;;;;;;;0.20;0.20;;;;;;;10.34;nan;101323.03;5025868;28;20029;-82
2023/05/26 04:23:00;;;;;;;0.20;0.20;;;;;;;10.39;nan;101320.84;5032776;28;20666;-82
2023/05/26 04:25:26;;;;;;;0.30;0.30;;;;;;;10.41;nan;101318.88;5026426;28;20486;-82
2023/05/26 04:27:57;;;;;;;0.20;0.20;;;;;;;10.45;nan;101321.28;5015714;28;20053;-82
2023/05/26 04:30:23;;;;;;;0.30;0.30;;;;;;;10.48;nan;101321.84;5046961;28;20025;-82
2023/05/26 04:32:49;;;;;;;0.20;0.20;;;;;;;10.51;nan;101326.91;5028641;28;20064;-82
2023/05/26 04:35:14;;;;;;;0.20;0.20;;;;;;;10.55;nan;101330.94;5044941;28;20490;-83
2023/05/26 04:37:40;;;;;;;0.20;0.20;;;;;;;10.61;nan;101327.78;5021897;28;20047;-82
2023/05/26 04:40:07;;;;;;;0.20;0.20;;;;;;;10.67;nan;101320.28;5017910;28;20037;-81
2023/05/26 04:42:35;;;;;;;0.20;0.20;;;;;;;10.75;nan;101326.59;5018859;28;20042;-81
2023/05/26 04:45:02;;;;;;;0.20;0.20;;;;;;;10.83;nan;101329.38;5043897;28;20048;-82
2023/05/26 04:47:27;;;;;;;0.28;0.28;;;;;;;10.91;nan;101327.88;5043345;28;20033;-82
2023/05/26 04:49:53;;;;;;;0.20;0.20;;;;;;;10.92;nan;101321.63;5012239;28;20549;-82
2023/05/26 04:52:18;;;;;;;0.20;0.20;;;;;;;10.98;nan;101329.00;5014419;28;20029;-83
2023/05/26 04:54:44;;;;;;;0.20;0.20;;;;;;;11.04;nan;101333.78;5020891;28;20485;-83
2023/05/26 04:57:09;;;;;;;0.20;0.20;;;;;;;11.15;nan;101331.00;5024343;28;20057;-82
2023/05/26 04:59:37;;;;;;;0.20;0.20;;;;;;;11.21;nan;101334.94;5026815;28;20040;-82
2023/05/26 05:02:03;;;;;;;0.20;0.20;;;;;;;11.32;nan;101339.25;5009045;28;20049;-82
2023/05/26 05:04:28;;;;;;;0.20;0.20;;;;;;;11.35;nan;101331.91;5044749;28;20033;-82
2023/05/26 05:06:54;;;;;;;0.20;0.20;;;;;;;11.43;nan;101339.97;5025215;28;20445;-82
2023/05/26 05:09:20;;;;;;;0.20;0.20;;;;;;;11.52;nan;101340.16;5022566;28;20029;-81
2023/05/26 05:11:46;;;;;;;0.20;0.20;;;;;;;11.51;nan;101341.09;5041706;28;20037;-82
2023/05/26 05:14:12;;;;;;;0.20;0.20;;;;;;;11.60;nan;101337.63;5043142;28;20120;-81
2023/05/26 05:16:37;;;;;;;0.20;0.20;;;;;;;11.66;nan;101343.22;5043880;28;20460;-81
2023/05/26 05:19:02;;;;;;;0.10;0.10;;;;;;;11.77;nan;101344.03;5017413;28;20082;-82
2023/05/26 05:21:28;;;;;;;0.15;0.15;;;;;;;11.83;nan;101343.50;5031688;28;20033;-81
2023/05/26 05:23:53;;;;;;;0.20;0.20;;;;;;;11.95;nan;101334.47;5027775;28;20033;-82
2023/05/26 05:26:18;;;;;;;0.15;0.15;;;;;;;12.06;nan;101339.63;5012906;28;20548;-82
2023/05/26 05:28:44;;;;;;;0.20;0.20;;;;;;;12.14;nan;101335.41;5024229;28;20037;-82
2023/05/26 05:31:09;;;;;;;0.20;0.20;;;;;;;12.19;nan;101341.97;5036382;28;20414;-84
2023/05/26 05:33:38;;;;;;;0.20;0.20;;;;;;;12.37;nan;101347.38;5018811;28;20148;-82
2023/05/26 05:36:04;;;;;;;0.10;0.10;;;;;;;12.57;nan;101342.84;5036762;28;20512;-82
2023/05/26 05:38:29;;;;;;;0.20;0.20;;;;;;;12.70;nan;101343.38;5016047;28;20044;-83
2023/05/26 05:40:54;;;;;;;0.20;0.20;;;;;;;12.99;nan;101345.06;5029740;28;20046;-83
2023/05/26 05:43:19;;;;;;;0.20;0.20;;;;;;;13.37;nan;101357.31;5011708;28;20423;-83
2023/05/26 05:45:45;;;;;;;0.10;0.10;;;;;;;13.63;nan;101356.56;5027516;28;20037;-83
2023/05/26 05:48:10;;;;;;;0.10;0.10;;;;;;;13.92;nan;101355.47;5020305;28;20284;-82
2023/05/26 05:50:35;;;;;;;0.10;0.10;;;;;;;14.12;nan;101356.97;5016924;28;20248;-82
2023/05/26 05:53:01;;;;;;;0.20;0.20;;;;;;;14.41;nan;101355.84;5019865;28;20099;-82
2023/05/26 05:55:26;;;;;;;0.10;0.10;;;;;;;14.65;nan;101345.38;5036329;28;20564;-82
2023/05/26 05:57:53;;;;;;;0.10;0.10;;;;;;;15.18;nan;101348.78;5030884;28;20411;-82
2023/05/26 06:00:18;;;;;;;0.00;0.00;;;;;;;15.59;nan;101350.69;5012358;28;20403;-82
2023/05/26 06:02:44;;;;;;;0.10;0.10;;;;;;;16.13;nan;101349.22;5020541;28;20411;-82
2023/05/26 06:05:09;;;;;;;0.00;0.00;;;;;;;16.39;nan;101353.53;5039982;28;20411;-83
2023/05/26 06:07:35;;;;;;;0.00;0.00;;;;;;;16.77;nan;101353.78;5049896;28;20480;-83
2023/05/26 06:10:00;;;;;;;0.00;0.00;;;;;;;17.46;nan;101358.50;5048321;28;20813;-82
2023/05/26 06:12:25;;;;;;;0.00;0.00;;;;;;;17.93;nan;101365.56;5037550;28;20463;-83
2023/05/26 06:14:50;;;;;;;0.00;0.00;;;;;;;18.54;nan;101366.31;5029792;28;20403;-83
2023/05/26 06:17:16;;;;;;;0.00;0.00;;;;;;;18.81;nan;101372.09;5017878;28;20409;-83
2023/05/26 06:19:41;;;;;;;;;;;;;;;18.53;nan;101370.03;5045213;28;20409;-83
2023/05/26 06:22:06;;;;;;;;;;;;;;;18.48;nan;101361.72;5026298;28;19917;-84
2023/05/26 06:24:31;;;;;;;;;;;;;;;18.42;nan;101371.31;5032661;28;19921;-83
2023/05/26 06:26:57;;;;;;;0.00;0.00;;;;;;;18.46;nan;101359.19;5040216;28;19940;-83
2023/05/26 06:29:22;;;;;;;0.00;0.00;;;;;;;18.77;nan;101366.28;5047573;28;20417;-82
2023/05/26 06:31:47;;;;;;;0.00;0.00;;;;;;;19.03;nan;101354.25;5054631;28;20063;-85
2023/05/26 06:34:13;;;;;;;0.00;0.00;;;;;;;19.80;nan;101359.00;5026473;28;20503;-84
2023/05/26 06:36:38;;;;;;;0.00;0.00;;;;;;;19.58;nan;101362.69;5032689;28;20045;-83
2023/05/26 06:39:03;;;;;;;0.00;0.00;;;;;;;19.98;nan;101361.25;5037321;28;20090;-83
2023/05/26 06:41:28;;;;;;;0.10;0.10;;;;;;;20.05;nan;101361.31;5012365;28;20406;-83
2023/05/26 06:43:54;;;;;;;;;;;;;;;19.98;nan;101363.94;5016684;28;20457;-83
2023/05/26 06:46:19;;;;;;;;;;;;;;;20.17;nan;101359.75;5042481;28;20397;-84
2023/05/26 06:48:45;;;;;;;;;;;;;;;20.13;nan;101359.31;5033148;28;20011;-84
2023/05/26 06:51:10;;;;;;;;;;;;;;;20.24;nan;101362.50;5020141;28;19923;-83
2023/05/26 06:53:37;;;;;;;;;;;;;;;20.19;nan;101364.91;5053198;28;19995;-82
2023/05/26 06:56:03;;;;;;;0.00;0.00;;;;;;;20.20;nan;101366.59;5029841;28;19923;-83
2023/05/26 06:58:28;;;;;;;;;;;;;;;20.24;nan;101362.50;5003331;28;20043;-83
2023/05/26 07:01:00;;;;;;;;;;;;;;;20.45;nan;101361.59;5033689;28;20007;-82
2023/05/26 07:03:26;;;;;;;0.00;0.00;;;;;;;20.64;nan;101368.16;5034330;28;19940;-83
2023/05/26 07:05:52;;;;;;;0.00;0.00;;;;;;;20.86;nan;101361.69;5014204;28;20396;-82
2023/05/26 07:08:17;;;;;;;0.00;0.00;;;;;;;20.91;nan;101366.47;5036408;28;20417;-83
2023/05/26 07:10:42;;;;;;;0.00;0.00;;;;;;;21.26;nan;101369.91;5025000;28;20480;-83
2023/05/26 07:13:07;;;;;;;;;;;;;;;21.30;nan;101365.78;5031847;28;20029;-83
2023/05/26 07:15:33;;;;;;;0.00;0.00;;;;;;;21.53;nan;101360.06;5031123;28;19939;-81
2023/05/26 07:17:58;;;;;;;0.00;0.00;;;;;;;22.18;nan;101365.72;5043636;28;20396;-81
2023/05/26 07:20:23;;;;;;;0.00;0.00;;;;;;;22.44;nan;101364.06;5046067;28;20753;-83
2023/05/26 07:22:49;;;;;;;0.00;0.00;;;;;;;22.13;nan;101368.19;5019870;28;20548;-84
2023/05/26 07:25:14;;;;;;;0.00;0.00;;;;;;;22.20;nan;101369.06;5034554;28;20044;-82
2023/05/26 07:27:39;;;;;;;0.00;0.00;;;;;;;22.41;nan;101370.69;5035401;28;20745;-83
2023/05/26 07:30:05;;;;;;;0.00;0.00;;;;;;;22.68;nan;101366.06;5017487;28;20028;-83
2023/05/26 07:32:31;;;;;;;0.00;0.00;;;;;;;22.90;nan;101360.41;5034221;28;20395;-82
2023/05/26 07:34:56;;;;;;;0.00;0.00;;;;;;;22.92;nan;101373.69;5031636;28;20048;-82
2023/05/26 07:37:21;;;;;;;0.00;0.00;;;;;;;22.92;nan;101363.72;5030983;28;20350;-83
2023/05/26 07:39:46;;;;;;;0.00;0.00;;;;;;;23.17;nan;101361.16;5010157;28;20280;-83
2023/05/26 07:42:12;;;;;;;0.00;0.00;;;;;;;23.20;nan;101362.59;5012143;28;21152;-83
2023/05/26 07:44:37;;;;;;;0.00;0.00;;;;;;;23.46;nan;101353.53;5030299;28;20033;-83
2023/05/26 07:47:02;;;;;;;0.00;0.00;;;;;;;23.96;nan;101361.72;5028017;28;20708;-83
2023/05/26 07:49:28;;;;;;;0.00;0.00;;;;;;;24.06;nan;101363.94;5027988;28;20518;-83
2023/05/26 07:51:53;;;;;;;0.00;0.00;;;;;;;24.03;nan;101364.38;5013012;28;20049;-82
2023/05/26 07:54:18;;;;;;;0.00;0.00;;;;;;;24.48;nan;101361.47;5030121;28;20033;-82
2023/05/26 07:56:43;;;;;;;0.00;0.00;;;;;;;24.77;nan;101359.94;5030560;28;20044;-83
2023/05/26 07:59:09;;;;;;;0.00;0.00;;;;;;;24.93;nan;101358.47;5030600;28;20115;-83
2023/05/26 08:01:34;;;;;;;0.00;0.00;;;;;;;24.83;nan;101360.91;5011917;28;20132;-82
2023/05/26 08:03:59;;;;;;;0.00;0.00;;;;;;;25.00;nan;101351.97;5030215;28;20419;-82
2023/05/26 08:06:24;;;;;;;0.00;0.00;;;;;;;25.23;nan;101361.25;5027363;28;20326;-82
2023/05/26 08:08:50;;;;;;;0.00;0.00;;;;;;;25.61;nan;101351.97;5012946;28;20292;-83
2023/05/26 08:11:16;;;;;;;0.00;0.00;;;;;;;25.78;nan;101362.97;5028729;28;20386;-83
2023/05/26 08:13:41;;;;;;;0.00;0.00;;;;;;;25.95;nan;101365.84;5029742;28;20037;-83
2023/05/26 08:16:07;;;;;;;0.00;0.00;;;;;;;26.44;nan;101370.00;5029530;28;20029;-83
2023/05/26 08:18:32;;;;;;;0.00;0.00;;;;;;;26.56;nan;101359.16;5029668;28;20279;-83
2023/05/26 08:20:57;;;;;;;0.00;0.00;;;;;;;26.53;nan;101367.75;5028517;28;20510;-82
2023/05/26 08:23:23;;;;;;;0.00;0.00;;;;;;;26.92;nan;101361.81;5027981;28;20272;-84
2023/05/26 08:25:48;;;;;;;;;;;;;;;26.59;nan;101355.97;5010722;28;20268;-83
2023/05/26 08:28:13;;;;;;;0.00;0.00;;;;;;;26.44;nan;101353.72;5010333;28;19939;-83
2023/05/26 08:30:40;;;;;;;0.00;0.00;;;;;;;26.68;nan;101359.97;5028667;28;20112;-83
2023/05/26 08:33:05;;;;;;;0.00;0.00;;;;;;;26.03;nan;101360.91;5035386;28;20036;-83
2023/05/26 08:35:31;;;;;;;0.00;0.00;;;;;;;26.80;nan;101359.13;5011214;28;20025;-83
2023/05/26 08:37:56;;;;;;;0.00;0.00;;;;;;;26.72;nan;101357.59;5029832;28;20390;-83
2023/05/26 08:40:21;;;;;;;0.00;0.00;;;;;;;26.59;nan;101355.97;5031672;28;20565;-83
2023/05/26 08:42:51;;;;;;;0.00;0.00;;;;;;;27.16;nan;101362.53;5033310;28;20033;-83
2023/05/26 08:45:20;;;;;;;0.00;0.00;;;;;;;26.98;nan;101353.53;5020561;28;20315;-83
2023/05/26 08:47:47;;;;;;;0.00;0.00;;;;;;;27.41;nan;101359.50;5031314;28;20032;-83
2023/05/26 08:50:15;;;;;;;0.00;0.00;;;;;;;28.21;nan;101365.75;5033757;28;20025;-83
2023/05/26 08:52:41;;;;;;;0.00;0.00;;;;;;;28.45;nan;101363.66;5016953;28;20041;-83
2023/05/26 08:55:08;;;;;;;0.00;0.00;;;;;;;28.53;nan;101369.53;5034232;28;20048;-83
2023/05/26 08:57:34;;;;;;;0.00;0.00;;;;;;;28.78;nan;101360.84;5018096;28;20037;-84
2023/05/26 08:59:59;;;;;;;0.00;0.00;;;;;;;28.52;nan;101364.31;5048096;28;20029;-82
2023/05/26 09:02:26;;;;;;;0.00;0.00;;;;;;;29.20;nan;101354.84;5041382;28;20045;-83
2023/05/26 09:04:52;;;;;;;0.00;0.00;;;;;;;29.32;nan;101368.31;5035724;28;20101;-83
2023/05/26 09:07:18;;;;;;;0.00;0.00;;;;;;;29.10;nan;101360.16;5044039;28;20029;-84
2023/05/26 09:09:43;;;;;;;0.00;0.00;;;;;;;28.61;nan;101362.00;5036213;28;20091;-83
2023/05/26 09:12:12;;;;;;;0.00;0.00;;;;;;;28.59;nan;101371.22;5031950;28;20437;-83
2023/05/26 09:14:38;;;;;;;0.00;0.00;;;;;;;29.02;nan;101366.84;5032610;28;20491;-84
2023/05/26 09:17:04;;;;;;;0.00;0.00;;;;;;;29.41;nan;101364.06;5033557;28;20029;-83
2023/05/26 09:19:32;;;;;;;0.00;0.00;;;;;;;29.13;nan;101367.03;5037732;28;20038;-83
2023/05/26 09:22:05;;;;;;;0.00;0.00;;;;;;;29.75;nan;101369.28;5015042;28;20120;-83
2023/05/26 09:24:43;;;;;;;0.00;0.00;;;;;;;29.81;nan;101368.22;5033147;28;20041;-83
2023/05/26 09:27:16;;;;;;;0.00;0.00;;;;;;;30.30;nan;101363.72;5027352;28;20053;-83
2023/05/26 09:29:52;;;;;;;0.00;0.00;;;;;;;29.50;nan;101369.84;5033409;28;20034;-83
2023/05/26 09:32:18;;;;;;;0.00;0.00;;;;;;;29.78;nan;101367.94;5032362;28;20089;-83
2023/05/26 09:34:44;;;;;;;0.00;0.00;;;;;;;29.97;nan;101371.09;5015174;28;20407;-84
2023/05/26 09:37:10;;;;;;;;;;;;;;;30.19;nan;101362.78;5015532;28;20117;-83
2023/05/26 09:39:35;;;;;;;;;;;;;;;29.83;nan;101363.34;5032454;28;20278;-84
2023/05/26 09:42:03;;;;;;;;;;;;;;;29.43;nan;101359.13;5034066;28;19912;-84
2023/05/26 09:44:31;;;;;;;;;;;;;;;29.39;nan;101358.03;5041858;28;19913;-84
2023/05/26 09:46:56;;;;;;;;;;;;;;;29.13;nan;101362.41;5039113;28;19918;-84
2023/05/26 09:49:21;;;;;;;;;;;;;;;28.28;nan;101361.78;5018332;28;19919;-83
2023/05/26 09:51:48;;;;;;;;;;;;;;;29.38;nan;101355.56;5032697;28;19916;-84
2023/05/26 09:54:14;;;;;;;;;;;;;;;29.89;nan;101361.50;5033575;28;20019;-83
2023/05/26 09:57:00;;;;;;;;;;;;;;;29.69;nan;101355.88;5016209;28;19949;-83
2023/05/26 09:59:31;;;;;;;;;;;;;;;29.28;nan;101356.28;5032915;28;20126;-83
2023/05/26 10:01:56;;;;;;;;;;;;;;;29.07;nan;101354.41;5035912;28;19938;-82
2023/05/26 10:04:21;;;;;;;;;;;;;;;29.22;nan;101357.28;5051680;28;20277;-84
2023/05/26 10:06:48;;;;;;;;;;;;;;;29.85;nan;101354.91;5039379;28;20374;-84
2023/05/26 10:09:14;;;;;;;;;;;;;;;30.34;nan;101356.63;5036738;28;19924;-84
2023/05/26 10:11:41;;;;;;;;;;;;;;;30.74;nan;101355.19;5035803;28;20176;-84
2023/05/26 10:14:06;;;;;;;;;;;;;;;30.33;nan;101358.53;5039970;28;19982;-83
2023/05/26 10:16:31;;;;;;;;;;;;;;;30.74;nan;101355.19;5038820;28;19924;-83
2023/05/26 10:18:57;;;;;;;;;;;;;;;30.90;nan;101359.66;5035722;28;19980;-84
2023/05/26 10:21:24;;;;;;;;;;;;;;;30.45;nan;101358.34;5026214;28;19956;-84
2023/05/26 10:23:53;;;;;;;;;;;;;;;30.30;nan;101355.53;5016558;28;20385;-84
2023/05/26 10:26:29;;;;;;;;;;;;;;;30.67;nan;101355.44;5035146;28;20559;-81
2023/05/26 10:28:56;;;;;;;;;;;;;;;30.62;nan;101353.50;5034094;28;20152;-82
2023/05/26 10:31:29;;;;;;;;;;;;;;;30.94;nan;101352.59;5033941;28;20016;-84
2023/05/26 10:33:55;;;;;;;;;;;;;;;31.14;nan;101348.25;5034389;28;20023;-84
2023/05/26 10:36:20;;;;;;;;;;;;;;;31.74;nan;101352.16;5016054;28;20291;-84
2023/05/26 10:38:46;;;;;;;;;;;;;;;31.25;nan;101349.91;5016001;28;19947;-84
2023/05/26 10:41:28;;;;;;;;;;;;;;;31.43;nan;101345.88;5039161;28;19912;-84
2023/05/26 10:43:53;;;;;;;;;;;;;;;30.77;nan;101351.91;5015396;28;20436;-84
2023/05/26 10:46:18;;;;;;;;;;;;;;;31.19;nan;101351.00;5033607;28;19916;-83
2023/05/26 10:48:57;;;;;;;;;;;;;;;31.71;nan;101342.59;5016292;28;19957;-82
2023/05/26 10:51:31;;;;;;;;;;;;;;;32.27;nan;101340.91;5016449;28;19917;-82
2023/05/26 10:53:57;;;;;;;;;;;;;;;32.99;nan;101336.00;5018398;28;19968;-83
2023/05/26 10:56:41;;;;;;;;;;;;;;;32.79;nan;101334.97;5041434;28;19971;-82
2023/05/26 10:59:06;;;;;;;;;;;;;;;33.08;nan;101331.56;5040613;28;19913;-83
2023/05/26 11:01:32;;;;;;;;;;;;;;;32.47;nan;101334.56;5021680;28;19955;-83
2023/05/26 11:04:08;;;;;;;;;;;;;;;32.01;nan;101331.94;5038854;28;19917;-83
2023/05/26 11:06:33;;;;;;;;;;;;;;;32.68;nan;101329.81;5020932;28;19917;-82
2023/05/26 11:09:00;;;;;;;;;;;;;;;32.54;nan;101337.84;5032506;28;19913;-83
2023/05/26 11:11:26;;;;;;;;;;;;;;;32.28;nan;101337.91;5039385;28;19913;-82
2023/05/26 11:13:58;;;;;;;;;;;;;;;33.09;nan;101338.69;5015598;28;20334;-82
2023/05/26 11:16:24;;;;;;;;;;;;;;;32.98;nan;101334.34;5016747;28;19952;-83
2023/05/26 11:18:54;;;;;;;;;;;;;;;33.48;nan;101329.63;5014415;28;19913;-83
2023/05/26 11:21:26;;;;;;;;;;;;;;;34.47;nan;101323.75;5012094;28;19972;-83
2023/05/26 11:23:56;;;;;;;;;;;;;;;34.64;nan;101333.47;5031479;28;19976;-83
2023/05/26 11:26:22;;;;;;;;;;;;;;;34.57;nan;101322.81;5013553;28;19917;-83
2023/05/26 11:28:47;;;;;;;;;;;;;;;34.05;nan;101319.00;5031134;28;19996;-83
2023/05/26 11:31:13;;;;;;;;;;;;;;;34.37;nan;101323.03;5026099;28;19940;-83
2023/05/26 11:33:39;;;;;;;;;;;;;;;34.48;nan;101321.81;5008942;28;20012;-83
2023/05/26 11:36:06;;;;;;;;;;;;;;;33.77;nan;101313.22;5012007;28;20362;-82
2023/05/26 11:38:31;;;;;;;;;;;;;;;33.92;nan;101238.19;5002278;28;20366;-83
2023/05/26 11:40:56;;;;;;;;;;;;;;;34.47;nan;101315.50;5030272;28;19928;-83
2023/05/26 11:43:25;;;;;;;;;;;;;;;34.98;nan;101316.78;5029739;28;19917;-83
2023/05/26 11:45:53;;;;;;;;;;;;;;;35.04;nan;101317.50;5028158;28;19917;-83
2023/05/26 11:48:18;;;;;;;;;;;;;;;35.19;nan;101309.06;5029368;28;19913;-83
2023/05/26 11:50:43;;;;;;;;;;;;;;;34.98;nan;101307.72;5013754;28;20546;-82
2023/05/26 11:53:08;;;;;;;;;;;;;;;34.01;nan;101230.91;5027612;28;20008;-83
2023/05/26 11:55:34;;;;;;;;;;;;;;;34.51;nan;101224.28;5001691;28;19914;-83